sensor_id;sensor_type;location;lat;lon;timestamp;temperature;humidity
8475;DHT22;4274;52.012;8.448;2022-12-15T00:02:02;-8.10;99.90
8475;DHT22;4274;52.012;8.448;2022-12-15T00:04:47;-8.00;99.90
8475;DHT22;4274;52.012;8.448;2022-12-15T00:07:31;-7.90;99.90
8475;DHT22;4274;52.012;8.448;2022-12-15T00:10:16;-7.80;99.90
8475;DHT22;4274;52.012;8.448;2022-12-15T00:13:00;-7.80;99.90
8475;DHT22;4274;52.012;8.448;2022-12-15T00:15:45;-7.80;99.90
8475;DHT22;4274;52.012;8.448;2022-12-15T00:18:29;-7.70;99.90
8475;DHT22;4274;52.012;8.448;2022-12-15T00:21:13;-7.60;99.90
8475;DHT22;4274;52.012;8.448;2022-12-15T00:23:57;-7.50;99.90
8475;DHT22;4274;52.012;8.448;2022-12-15T00:26:41;-7.50;99.90
8475;DHT22;4274;52.012;8.448;2022-12-15T00:29:25;-7.60;99.90
8475;DHT22;4274;52.012;8.448;2022-12-15T00:32:09;-7.70;99.90
8475;DHT22;4274;52.012;8.448;2022-12-15T00:34:53;-7.90;99.90
8475;DHT22;4274;52.012;8.448;2022-12-15T00:37:38;-7.80;99.90
8475;DHT22;4274;52.012;8.448;2022-12-15T00:40:21;-7.90;99.90
8475;DHT22;4274;52.012;8.448;2022-12-15T00:42:47;-7.90;99.90
8475;DHT22;4274;52.012;8.448;2022-12-15T00:45:12;-7.90;99.90
8475;DHT22;4274;52.012;8.448;2022-12-15T00:47:38;-7.90;99.90
8475;DHT22;4274;52.012;8.448;2022-12-15T00:50:04;-8.00;99.90
8475;DHT22;4274;52.012;8.448;2022-12-15T00:52:48;-8.00;99.90
8475;DHT22;4274;52.012;8.448;2022-12-15T00:55:32;-7.80;99.90
8475;DHT22;4274;52.012;8.448;2022-12-15T00:58:16;-7.80;99.90
8475;DHT22;4274;52.012;8.448;2022-12-15T01:01:08;-7.70;99.90
8475;DHT22;4274;52.012;8.448;2022-12-15T01:03:53;-7.70;99.90
8475;DHT22;4274;52.012;8.448;2022-12-15T01:06:37;-7.70;99.90
8475;DHT22;4274;52.012;8.448;2022-12-15T01:09:21;-7.80;99.90
8475;DHT22;4274;52.012;8.448;2022-12-15T01:12:05;-7.80;99.90
8475;DHT22;4274;52.012;8.448;2022-12-15T01:14:49;-7.70;99.90
8475;DHT22;4274;52.012;8.448;2022-12-15T01:17:33;-7.70;99.90
8475;DHT22;4274;52.012;8.448;2022-12-15T01:20:17;-7.60;99.90
8475;DHT22;4274;52.012;8.448;2022-12-15T01:22:48;-7.60;99.90
8475;DHT22;4274;52.012;8.448;2022-12-15T01:25:15;-7.60;99.90
8475;DHT22;4274;52.012;8.448;2022-12-15T01:27:41;-7.60;99.90
8475;DHT22;4274;52.012;8.448;2022-12-15T01:30:08;-7.60;99.90
8475;DHT22;4274;52.012;8.448;2022-12-15T01:32:35;-7.70;99.90
8475;DHT22;4274;52.012;8.448;2022-12-15T01:35:01;-7.80;99.90
8475;DHT22;4274;52.012;8.448;2022-12-15T01:37:27;-7.70;99.90
8475;DHT22;4274;52.012;8.448;2022-12-15T01:39:52;-7.70;99.90
8475;DHT22;4274;52.012;8.448;2022-12-15T01:42:37;-7.60;99.90
8475;DHT22;4274;52.012;8.448;2022-12-15T01:48:04;-7.50;99.90
8475;DHT22;4274;52.012;8.448;2022-12-15T01:50:33;-7.60;99.90
8475;DHT22;4274;52.012;8.448;2022-12-15T01:53:01;-7.70;99.90
8475;DHT22;4274;52.012;8.448;2022-12-15T01:55:29;-7.60;99.90
8475;DHT22;4274;52.012;8.448;2022-12-15T01:57:58;-7.60;99.90
8475;DHT22;4274;52.012;8.448;2022-12-15T02:00:25;-7.50;99.90
8475;DHT22;4274;52.012;8.448;2022-12-15T02:02:51;-7.40;99.90
8475;DHT22;4274;52.012;8.448;2022-12-15T02:05:17;-7.30;99.90
8475;DHT22;4274;52.012;8.448;2022-12-15T02:07:44;-7.20;99.90
8475;DHT22;4274;52.012;8.448;2022-12-15T02:10:10;-7.20;99.90
8475;DHT22;4274;52.012;8.448;2022-12-15T02:15:26;-7.00;99.90
8475;DHT22;4274;52.012;8.448;2022-12-15T02:18:21;-6.90;99.90
8475;DHT22;4274;52.012;8.448;2022-12-15T02:20:52;-6.90;99.90
8475;DHT22;4274;52.012;8.448;2022-12-15T02:32:05;-6.90;99.90
8475;DHT22;4274;52.012;8.448;2022-12-15T02:37:08;-6.80;99.90
8475;DHT22;4274;52.012;8.448;2022-12-15T02:39:36;-6.80;99.90
8475;DHT22;4274;52.012;8.448;2022-12-15T02:42:02;-6.80;99.90
8475;DHT22;4274;52.012;8.448;2022-12-15T02:44:49;-6.70;99.90
8475;DHT22;4274;52.012;8.448;2022-12-15T02:50:42;-6.70;99.90
8475;DHT22;4274;52.012;8.448;2022-12-15T02:56:36;-6.70;99.90
8475;DHT22;4274;52.012;8.448;2022-12-15T02:59:19;-6.70;99.90
8475;DHT22;4274;52.012;8.448;2022-12-15T03:01:58;-6.70;99.90
8475;DHT22;4274;52.012;8.448;2022-12-15T03:04:25;-6.80;99.90
8475;DHT22;4274;52.012;8.448;2022-12-15T03:06:56;-6.70;99.90
8475;DHT22;4274;52.012;8.448;2022-12-15T03:09:21;-6.70;99.90
8475;DHT22;4274;52.012;8.448;2022-12-15T03:11:47;-6.70;99.90
8475;DHT22;4274;52.012;8.448;2022-12-15T03:14:13;-6.70;99.90
8475;DHT22;4274;52.012;8.448;2022-12-15T03:16:38;-6.60;99.90
8475;DHT22;4274;52.012;8.448;2022-12-15T03:19:04;-6.50;99.90
8475;DHT22;4274;52.012;8.448;2022-12-15T03:21:29;-6.40;99.90
8475;DHT22;4274;52.012;8.448;2022-12-15T03:23:55;-6.50;99.90
8475;DHT22;4274;52.012;8.448;2022-12-15T03:26:21;-6.50;99.90
8475;DHT22;4274;52.012;8.448;2022-12-15T03:28:46;-6.50;99.90
8475;DHT22;4274;52.012;8.448;2022-12-15T03:31:12;-6.50;99.90
8475;DHT22;4274;52.012;8.448;2022-12-15T03:33:38;-6.40;99.90
8475;DHT22;4274;52.012;8.448;2022-12-15T03:36:04;-6.40;99.90
8475;DHT22;4274;52.012;8.448;2022-12-15T03:38:29;-6.30;99.90
8475;DHT22;4274;52.012;8.448;2022-12-15T03:40:55;-6.30;99.90
8475;DHT22;4274;52.012;8.448;2022-12-15T03:43:20;-6.20;99.90
8475;DHT22;4274;52.012;8.448;2022-12-15T03:45:46;-6.10;99.90
8475;DHT22;4274;52.012;8.448;2022-12-15T03:48:12;-6.10;99.90
8475;DHT22;4274;52.012;8.448;2022-12-15T03:50:37;-6.00;99.90
8475;DHT22;4274;52.012;8.448;2022-12-15T03:53:03;-5.90;99.90
8475;DHT22;4274;52.012;8.448;2022-12-15T03:55:29;-5.80;99.90
8475;DHT22;4274;52.012;8.448;2022-12-15T03:57:55;-5.70;99.90
8475;DHT22;4274;52.012;8.448;2022-12-15T04:00:21;-5.70;99.90
8475;DHT22;4274;52.012;8.448;2022-12-15T04:02:47;-5.60;99.90
8475;DHT22;4274;52.012;8.448;2022-12-15T04:05:26;-5.60;99.90
8475;DHT22;4274;52.012;8.448;2022-12-15T04:07:52;-5.50;99.90
8475;DHT22;4274;52.012;8.448;2022-12-15T04:10:19;-5.40;99.90
8475;DHT22;4274;52.012;8.448;2022-12-15T04:12:44;-5.40;99.90
8475;DHT22;4274;52.012;8.448;2022-12-15T04:15:10;-5.30;99.90
8475;DHT22;4274;52.012;8.448;2022-12-15T04:17:36;-5.30;99.90
8475;DHT22;4274;52.012;8.448;2022-12-15T04:20:03;-5.20;99.90
8475;DHT22;4274;52.012;8.448;2022-12-15T04:22:39;-5.20;99.90
8475;DHT22;4274;52.012;8.448;2022-12-15T04:25:07;-5.20;99.90
8475;DHT22;4274;52.012;8.448;2022-12-15T04:27:52;-5.20;99.90
8475;DHT22;4274;52.012;8.448;2022-12-15T04:30:37;-5.20;99.90
8475;DHT22;4274;52.012;8.448;2022-12-15T04:33:23;-5.30;99.90
8475;DHT22;4274;52.012;8.448;2022-12-15T04:36:09;-5.30;99.90
8475;DHT22;4274;52.012;8.448;2022-12-15T04:38:55;-5.40;99.90
8475;DHT22;4274;52.012;8.448;2022-12-15T04:41:40;-5.50;99.90
8475;DHT22;4274;52.012;8.448;2022-12-15T04:44:24;-5.60;99.90
8475;DHT22;4274;52.012;8.448;2022-12-15T04:47:08;-5.60;99.90
8475;DHT22;4274;52.012;8.448;2022-12-15T04:49:52;-5.50;99.90
8475;DHT22;4274;52.012;8.448;2022-12-15T04:52:36;-5.60;99.90
8475;DHT22;4274;52.012;8.448;2022-12-15T04:55:20;-5.60;99.90
8475;DHT22;4274;52.012;8.448;2022-12-15T04:58:08;-5.70;99.90
8475;DHT22;4274;52.012;8.448;2022-12-15T05:00:55;-5.70;99.90
8475;DHT22;4274;52.012;8.448;2022-12-15T05:03:39;-5.80;99.90
8475;DHT22;4274;52.012;8.448;2022-12-15T05:06:23;-5.90;99.90
8475;DHT22;4274;52.012;8.448;2022-12-15T05:09:07;-5.90;99.90
8475;DHT22;4274;52.012;8.448;2022-12-15T05:11:51;-5.90;99.90
8475;DHT22;4274;52.012;8.448;2022-12-15T05:14:35;-5.90;99.90
8475;DHT22;4274;52.012;8.448;2022-12-15T05:17:19;-6.00;99.90
8475;DHT22;4274;52.012;8.448;2022-12-15T05:20:04;-6.10;99.90
8475;DHT22;4274;52.012;8.448;2022-12-15T05:22:55;-6.20;99.90
8475;DHT22;4274;52.012;8.448;2022-12-15T05:25:40;-6.20;99.90
8475;DHT22;4274;52.012;8.448;2022-12-15T05:28:24;-6.30;99.90
8475;DHT22;4274;52.012;8.448;2022-12-15T05:31:08;-6.30;99.90
8475;DHT22;4274;52.012;8.448;2022-12-15T05:33:53;-6.40;99.90
8475;DHT22;4274;52.012;8.448;2022-12-15T05:36:20;-6.40;99.90
8475;DHT22;4274;52.012;8.448;2022-12-15T05:38:49;-6.40;99.90
8475;DHT22;4274;52.012;8.448;2022-12-15T05:41:16;-6.40;99.90
8475;DHT22;4274;52.012;8.448;2022-12-15T05:43:42;-6.50;99.90
8475;DHT22;4274;52.012;8.448;2022-12-15T05:46:08;-6.50;99.90
8475;DHT22;4274;52.012;8.448;2022-12-15T05:48:34;-6.60;99.90
8475;DHT22;4274;52.012;8.448;2022-12-15T05:51:07;-6.60;99.90
8475;DHT22;4274;52.012;8.448;2022-12-15T05:53:34;-6.60;99.90
8475;DHT22;4274;52.012;8.448;2022-12-15T05:56:02;-6.60;99.90
8475;DHT22;4274;52.012;8.448;2022-12-15T05:58:28;-6.60;99.90
8475;DHT22;4274;52.012;8.448;2022-12-15T06:00:53;-6.60;99.90
8475;DHT22;4274;52.012;8.448;2022-12-15T06:03:19;-6.60;99.90
8475;DHT22;4274;52.012;8.448;2022-12-15T06:05:44;-6.60;99.90
8475;DHT22;4274;52.012;8.448;2022-12-15T06:08:10;-6.60;99.90
8475;DHT22;4274;52.012;8.448;2022-12-15T06:10:35;-6.60;99.90
8475;DHT22;4274;52.012;8.448;2022-12-15T06:13:01;-6.50;99.90
8475;DHT22;4274;52.012;8.448;2022-12-15T06:15:26;-6.40;99.90
8475;DHT22;4274;52.012;8.448;2022-12-15T06:17:53;-6.40;99.90
8475;DHT22;4274;52.012;8.448;2022-12-15T06:20:20;-6.30;99.90
8475;DHT22;4274;52.012;8.448;2022-12-15T06:22:45;-6.20;99.90
8475;DHT22;4274;52.012;8.448;2022-12-15T06:25:11;-6.20;99.90
8475;DHT22;4274;52.012;8.448;2022-12-15T06:27:37;-6.10;99.90
8475;DHT22;4274;52.012;8.448;2022-12-15T06:30:03;-6.10;99.90
8475;DHT22;4274;52.012;8.448;2022-12-15T06:32:28;-6.00;99.90
8475;DHT22;4274;52.012;8.448;2022-12-15T06:34:54;-6.00;99.90
8475;DHT22;4274;52.012;8.448;2022-12-15T06:37:19;-6.00;99.90
8475;DHT22;4274;52.012;8.448;2022-12-15T06:39:45;-6.00;99.90
8475;DHT22;4274;52.012;8.448;2022-12-15T06:42:11;-6.00;99.90
8475;DHT22;4274;52.012;8.448;2022-12-15T06:44:36;-6.00;99.90
8475;DHT22;4274;52.012;8.448;2022-12-15T06:47:02;-5.90;99.90
8475;DHT22;4274;52.012;8.448;2022-12-15T06:49:28;-5.90;99.90
8475;DHT22;4274;52.012;8.448;2022-12-15T06:51:53;-5.80;99.90
8475;DHT22;4274;52.012;8.448;2022-12-15T06:54:19;-5.90;99.90
8475;DHT22;4274;52.012;8.448;2022-12-15T06:56:44;-5.90;99.90
8475;DHT22;4274;52.012;8.448;2022-12-15T06:59:10;-5.80;99.90
8475;DHT22;4274;52.012;8.448;2022-12-15T07:01:36;-5.80;99.90
8475;DHT22;4274;52.012;8.448;2022-12-15T07:04:02;-5.70;99.90
8475;DHT22;4274;52.012;8.448;2022-12-15T07:06:36;-5.70;99.90
8475;DHT22;4274;52.012;8.448;2022-12-15T07:09:04;-5.70;99.90
8475;DHT22;4274;52.012;8.448;2022-12-15T07:11:31;-5.60;99.90
8475;DHT22;4274;52.012;8.448;2022-12-15T07:13:57;-5.60;99.90
8475;DHT22;4274;52.012;8.448;2022-12-15T07:16:22;-5.50;99.90
8475;DHT22;4274;52.012;8.448;2022-12-15T07:18:49;-5.50;99.90
8475;DHT22;4274;52.012;8.448;2022-12-15T07:21:15;-5.50;99.90
8475;DHT22;4274;52.012;8.448;2022-12-15T07:23:41;-5.60;99.90
8475;DHT22;4274;52.012;8.448;2022-12-15T07:26:08;-5.60;99.90
8475;DHT22;4274;52.012;8.448;2022-12-15T07:28:35;-5.60;99.90
8475;DHT22;4274;52.012;8.448;2022-12-15T07:31:06;-5.60;99.90
8475;DHT22;4274;52.012;8.448;2022-12-15T07:33:34;-5.60;99.90
8475;DHT22;4274;52.012;8.448;2022-12-15T07:36:00;-5.60;99.90
8475;DHT22;4274;52.012;8.448;2022-12-15T07:38:27;-5.60;99.90
8475;DHT22;4274;52.012;8.448;2022-12-15T07:40:53;-5.60;99.90
8475;DHT22;4274;52.012;8.448;2022-12-15T07:43:21;-5.60;99.90
8475;DHT22;4274;52.012;8.448;2022-12-15T07:45:54;-5.60;99.90
8475;DHT22;4274;52.012;8.448;2022-12-15T07:48:20;-5.50;99.90
8475;DHT22;4274;52.012;8.448;2022-12-15T07:50:46;-5.50;99.90
8475;DHT22;4274;52.012;8.448;2022-12-15T07:53:11;-5.40;99.90
8475;DHT22;4274;52.012;8.448;2022-12-15T07:55:37;-5.40;99.90
8475;DHT22;4274;52.012;8.448;2022-12-15T07:58:02;-5.40;99.90
8475;DHT22;4274;52.012;8.448;2022-12-15T08:00:28;-5.40;99.90
8475;DHT22;4274;52.012;8.448;2022-12-15T08:02:54;-5.30;99.90
8475;DHT22;4274;52.012;8.448;2022-12-15T08:05:19;-5.20;99.90
8475;DHT22;4274;52.012;8.448;2022-12-15T08:07:45;-5.20;99.90
8475;DHT22;4274;52.012;8.448;2022-12-15T08:10:11;-5.10;99.90
8475;DHT22;4274;52.012;8.448;2022-12-15T08:12:36;-5.00;99.90
8475;DHT22;4274;52.012;8.448;2022-12-15T08:15:02;-4.90;99.90
8475;DHT22;4274;52.012;8.448;2022-12-15T08:17:28;-4.90;99.90
8475;DHT22;4274;52.012;8.448;2022-12-15T08:19:53;-4.80;99.90
8475;DHT22;4274;52.012;8.448;2022-12-15T08:22:19;-4.80;99.90
8475;DHT22;4274;52.012;8.448;2022-12-15T08:24:44;-4.70;99.90
8475;DHT22;4274;52.012;8.448;2022-12-15T08:27:10;-4.60;99.90
8475;DHT22;4274;52.012;8.448;2022-12-15T08:29:36;-4.50;99.90
8475;DHT22;4274;52.012;8.448;2022-12-15T08:32:01;-4.40;99.90
8475;DHT22;4274;52.012;8.448;2022-12-15T08:34:27;-4.30;99.90
8475;DHT22;4274;52.012;8.448;2022-12-15T08:36:53;-4.20;99.90
8475;DHT22;4274;52.012;8.448;2022-12-15T08:39:18;-4.10;99.90
8475;DHT22;4274;52.012;8.448;2022-12-15T08:41:44;-4.00;99.90
8475;DHT22;4274;52.012;8.448;2022-12-15T08:44:10;-3.90;99.90
8475;DHT22;4274;52.012;8.448;2022-12-15T08:46:36;-3.80;99.90
8475;DHT22;4274;52.012;8.448;2022-12-15T08:49:02;-3.70;99.90
8475;DHT22;4274;52.012;8.448;2022-12-15T08:51:30;-3.60;99.90
8475;DHT22;4274;52.012;8.448;2022-12-15T08:53:56;-3.50;99.90
8475;DHT22;4274;52.012;8.448;2022-12-15T08:56:24;-3.40;99.90
8475;DHT22;4274;52.012;8.448;2022-12-15T08:58:54;-3.30;99.90
8475;DHT22;4274;52.012;8.448;2022-12-15T09:01:21;-3.20;99.90
8475;DHT22;4274;52.012;8.448;2022-12-15T09:03:49;-3.10;99.90
8475;DHT22;4274;52.012;8.448;2022-12-15T09:06:18;-3.10;99.90
8475;DHT22;4274;52.012;8.448;2022-12-15T09:08:44;-3.00;99.90
8475;DHT22;4274;52.012;8.448;2022-12-15T09:11:10;-3.00;99.90
8475;DHT22;4274;52.012;8.448;2022-12-15T09:13:36;-2.90;99.90
8475;DHT22;4274;52.012;8.448;2022-12-15T09:16:10;-2.80;99.90
8475;DHT22;4274;52.012;8.448;2022-12-15T09:18:39;-2.70;99.90
8475;DHT22;4274;52.012;8.448;2022-12-15T09:21:06;-2.40;99.90
8475;DHT22;4274;52.012;8.448;2022-12-15T09:23:34;-2.20;99.90
8475;DHT22;4274;52.012;8.448;2022-12-15T09:28:29;-2.10;99.90
8475;DHT22;4274;52.012;8.448;2022-12-15T09:31:04;-2.00;99.90
8475;DHT22;4274;52.012;8.448;2022-12-15T09:33:30;-2.00;99.90
8475;DHT22;4274;52.012;8.448;2022-12-15T09:35:55;-2.00;99.90
8475;DHT22;4274;52.012;8.448;2022-12-15T09:38:21;-1.90;99.90
8475;DHT22;4274;52.012;8.448;2022-12-15T09:40:47;-1.80;99.90
8475;DHT22;4274;52.012;8.448;2022-12-15T09:43:17;-1.60;99.90
8475;DHT22;4274;52.012;8.448;2022-12-15T09:45:49;-1.50;99.90
8475;DHT22;4274;52.012;8.448;2022-12-15T09:48:18;-1.30;99.90
8475;DHT22;4274;52.012;8.448;2022-12-15T09:50:47;-1.20;99.90
8475;DHT22;4274;52.012;8.448;2022-12-15T09:53:16;-1.10;99.90
8475;DHT22;4274;52.012;8.448;2022-12-15T09:55:44;-1.00;99.90
8475;DHT22;4274;52.012;8.448;2022-12-15T09:58:39;-0.80;99.90
8475;DHT22;4274;52.012;8.448;2022-12-15T10:01:42;-0.70;99.90
8475;DHT22;4274;52.012;8.448;2022-12-15T10:04:16;-0.40;99.90
8475;DHT22;4274;52.012;8.448;2022-12-15T10:06:53;-0.30;99.90
8475;DHT22;4274;52.012;8.448;2022-12-15T10:09:21;-0.40;99.90
8475;DHT22;4274;52.012;8.448;2022-12-15T10:12:15;-0.40;99.90
8475;DHT22;4274;52.012;8.448;2022-12-15T10:15:16;-0.40;99.90
8475;DHT22;4274;52.012;8.448;2022-12-15T10:20:31;-0.50;99.90
8475;DHT22;4274;52.012;8.448;2022-12-15T10:23:16;-0.40;99.90
8475;DHT22;4274;52.012;8.448;2022-12-15T10:25:48;-0.20;99.90
8475;DHT22;4274;52.012;8.448;2022-12-15T10:31:15;0.10;99.90
8475;DHT22;4274;52.012;8.448;2022-12-15T10:33:42;0.30;99.90
8475;DHT22;4274;52.012;8.448;2022-12-15T10:36:15;0.30;99.90
8475;DHT22;4274;52.012;8.448;2022-12-15T10:38:43;0.30;99.90
8475;DHT22;4274;52.012;8.448;2022-12-15T10:41:14;0.30;99.90
8475;DHT22;4274;52.012;8.448;2022-12-15T10:43:41;0.40;99.90
8475;DHT22;4274;52.012;8.448;2022-12-15T10:46:15;0.50;99.90
8475;DHT22;4274;52.012;8.448;2022-12-15T10:49:29;0.40;99.90
8475;DHT22;4274;52.012;8.448;2022-12-15T10:51:56;0.60;99.90
8475;DHT22;4274;52.012;8.448;2022-12-15T10:54:26;0.80;99.90
8475;DHT22;4274;52.012;8.448;2022-12-15T10:56:57;1.00;99.90
8475;DHT22;4274;52.012;8.448;2022-12-15T11:01:48;2.30;99.90
8475;DHT22;4274;52.012;8.448;2022-12-15T11:04:31;2.90;99.90
8475;DHT22;4274;52.012;8.448;2022-12-15T11:06:59;3.20;99.90
8475;DHT22;4274;52.012;8.448;2022-12-15T11:09:34;3.30;99.90
8475;DHT22;4274;52.012;8.448;2022-12-15T11:12:01;3.60;99.90
8475;DHT22;4274;52.012;8.448;2022-12-15T11:14:49;4.50;99.90
8475;DHT22;4274;52.012;8.448;2022-12-15T11:17:16;6.10;99.90
8475;DHT22;4274;52.012;8.448;2022-12-15T11:22:43;7.70;99.70
8475;DHT22;4274;52.012;8.448;2022-12-15T11:27:41;8.10;99.10
8475;DHT22;4274;52.012;8.448;2022-12-15T11:30:23;8.40;98.50
8475;DHT22;4274;52.012;8.448;2022-12-15T11:32:56;8.90;96.90
8475;DHT22;4274;52.012;8.448;2022-12-15T11:40:57;9.50;93.30
8475;DHT22;4274;52.012;8.448;2022-12-15T11:43:35;9.30;93.10
8475;DHT22;4274;52.012;8.448;2022-12-15T11:46:21;9.40;92.50
8475;DHT22;4274;52.012;8.448;2022-12-15T11:54:22;9.50;92.90
8475;DHT22;4274;52.012;8.448;2022-12-15T11:56:55;9.40;93.50
8475;DHT22;4274;52.012;8.448;2022-12-15T11:59:44;9.00;92.40
8475;DHT22;4274;52.012;8.448;2022-12-15T12:02:36;7.70;92.40
8475;DHT22;4274;52.012;8.448;2022-12-15T12:05:32;6.50;93.60
8475;DHT22;4274;52.012;8.448;2022-12-15T12:14:17;3.30;96.70
8475;DHT22;4274;52.012;8.448;2022-12-15T12:19:26;2.40;99.10
8475;DHT22;4274;52.012;8.448;2022-12-15T12:22:12;2.10;99.70
8475;DHT22;4274;52.012;8.448;2022-12-15T12:24:49;1.90;99.90
8475;DHT22;4274;52.012;8.448;2022-12-15T12:27:44;1.60;99.90
8475;DHT22;4274;52.012;8.448;2022-12-15T12:30:15;1.40;99.90
8475;DHT22;4274;52.012;8.448;2022-12-15T12:33:01;1.00;99.90
8475;DHT22;4274;52.012;8.448;2022-12-15T12:38:12;0.70;99.90
8475;DHT22;4274;52.012;8.448;2022-12-15T12:40:55;0.70;99.90
8475;DHT22;4274;52.012;8.448;2022-12-15T12:43:38;0.60;99.90
8475;DHT22;4274;52.012;8.448;2022-12-15T12:51:37;0.30;99.90
8475;DHT22;4274;52.012;8.448;2022-12-15T12:59:39;0.10;99.90
8475;DHT22;4274;52.012;8.448;2022-12-15T13:07:42;-0.10;99.90
8475;DHT22;4274;52.012;8.448;2022-12-15T13:10:20;-0.10;99.90
8475;DHT22;4274;52.012;8.448;2022-12-15T13:12:51;-0.20;99.90
8475;DHT22;4274;52.012;8.448;2022-12-15T13:18:12;-0.30;99.90
8475;DHT22;4274;52.012;8.448;2022-12-15T13:20:40;-0.30;99.90
8475;DHT22;4274;52.012;8.448;2022-12-15T13:39:02;-0.50;99.90
8475;DHT22;4274;52.012;8.448;2022-12-15T13:41:28;-0.50;99.90
8475;DHT22;4274;52.012;8.448;2022-12-15T13:43:54;-0.50;99.90
8475;DHT22;4274;52.012;8.448;2022-12-15T13:46:27;-0.50;99.90
8475;DHT22;4274;52.012;8.448;2022-12-15T13:49:11;-0.50;99.90
8475;DHT22;4274;52.012;8.448;2022-12-15T13:51:44;-0.60;99.90
8475;DHT22;4274;52.012;8.448;2022-12-15T13:56:40;-0.60;99.90
8475;DHT22;4274;52.012;8.448;2022-12-15T14:02:25;-0.70;99.90
8475;DHT22;4274;52.012;8.448;2022-12-15T14:07:35;-0.70;99.90
8475;DHT22;4274;52.012;8.448;2022-12-15T14:10:03;-0.70;99.90
8475;DHT22;4274;52.012;8.448;2022-12-15T14:12:29;-0.70;99.90
8475;DHT22;4274;52.012;8.448;2022-12-15T14:14:55;-0.80;99.90
8475;DHT22;4274;52.012;8.448;2022-12-15T14:17:21;-0.80;99.90
8475;DHT22;4274;52.012;8.448;2022-12-15T14:19:48;-0.80;99.90
8475;DHT22;4274;52.012;8.448;2022-12-15T14:22:20;-0.80;99.90
8475;DHT22;4274;52.012;8.448;2022-12-15T14:24:47;-0.80;99.90
8475;DHT22;4274;52.012;8.448;2022-12-15T14:27:33;-0.90;99.90
8475;DHT22;4274;52.012;8.448;2022-12-15T14:32:46;-1.00;99.90
8475;DHT22;4274;52.012;8.448;2022-12-15T14:35:22;-1.00;99.90
8475;DHT22;4274;52.012;8.448;2022-12-15T14:37:49;-1.10;99.90
8475;DHT22;4274;52.012;8.448;2022-12-15T14:40:16;-1.20;99.90
8475;DHT22;4274;52.012;8.448;2022-12-15T14:42:42;-1.30;99.90
8475;DHT22;4274;52.012;8.448;2022-12-15T14:45:24;-1.30;99.90
8475;DHT22;4274;52.012;8.448;2022-12-15T14:48:05;-1.40;99.90
8475;DHT22;4274;52.012;8.448;2022-12-15T14:50:30;-1.40;99.90
8475;DHT22;4274;52.012;8.448;2022-12-15T14:53:01;-1.40;99.90
8475;DHT22;4274;52.012;8.448;2022-12-15T14:55:36;-1.50;99.90
8475;DHT22;4274;52.012;8.448;2022-12-15T14:58:24;-1.50;99.90
8475;DHT22;4274;52.012;8.448;2022-12-15T15:00:52;-1.50;99.90
8475;DHT22;4274;52.012;8.448;2022-12-15T15:03:21;-1.60;99.90
8475;DHT22;4274;52.012;8.448;2022-12-15T15:06:00;-1.70;99.90
8475;DHT22;4274;52.012;8.448;2022-12-15T15:08:48;-1.80;99.90
8475;DHT22;4274;52.012;8.448;2022-12-15T15:11:30;-1.90;99.90
8475;DHT22;4274;52.012;8.448;2022-12-15T15:14:14;-2.00;99.90
8475;DHT22;4274;52.012;8.448;2022-12-15T15:16:41;-2.10;99.90
8475;DHT22;4274;52.012;8.448;2022-12-15T15:19:16;-2.10;99.90
8475;DHT22;4274;52.012;8.448;2022-12-15T15:21:45;-2.10;99.90
8475;DHT22;4274;52.012;8.448;2022-12-15T15:26:36;-2.10;99.90
8475;DHT22;4274;52.012;8.448;2022-12-15T15:29:35;-2.20;99.90
8475;DHT22;4274;52.012;8.448;2022-12-15T15:31:51;-2.20;99.90
8475;DHT22;4274;52.012;8.448;2022-12-15T15:34:17;-2.30;99.90
8475;DHT22;4274;52.012;8.448;2022-12-15T15:36:42;-2.40;99.90
8475;DHT22;4274;52.012;8.448;2022-12-15T15:39:13;-2.40;99.90
8475;DHT22;4274;52.012;8.448;2022-12-15T15:41:44;-2.50;99.90
8475;DHT22;4274;52.012;8.448;2022-12-15T15:44:14;-2.60;99.90
8475;DHT22;4274;52.012;8.448;2022-12-15T15:46:47;-2.60;99.90
8475;DHT22;4274;52.012;8.448;2022-12-15T15:49:17;-2.70;99.90
8475;DHT22;4274;52.012;8.448;2022-12-15T15:51:43;-2.80;99.90
8475;DHT22;4274;52.012;8.448;2022-12-15T15:54:15;-2.90;99.90
8475;DHT22;4274;52.012;8.448;2022-12-15T15:56:41;-2.90;99.90
8475;DHT22;4274;52.012;8.448;2022-12-15T15:59:12;-2.90;99.90
8475;DHT22;4274;52.012;8.448;2022-12-15T16:01:38;-2.90;99.90
8475;DHT22;4274;52.012;8.448;2022-12-15T16:04:04;-3.00;99.90
8475;DHT22;4274;52.012;8.448;2022-12-15T16:06:33;-3.10;99.90
8475;DHT22;4274;52.012;8.448;2022-12-15T16:09:00;-3.10;99.90
8475;DHT22;4274;52.012;8.448;2022-12-15T16:11:28;-3.20;99.90
8475;DHT22;4274;52.012;8.448;2022-12-15T16:13:54;-3.30;99.90
8475;DHT22;4274;52.012;8.448;2022-12-15T16:16:23;-3.40;99.90
8475;DHT22;4274;52.012;8.448;2022-12-15T16:18:49;-3.40;99.90
8475;DHT22;4274;52.012;8.448;2022-12-15T16:21:15;-3.40;99.90
8475;DHT22;4274;52.012;8.448;2022-12-15T16:23:44;-3.40;99.90
8475;DHT22;4274;52.012;8.448;2022-12-15T16:26:27;-3.50;99.90
8475;DHT22;4274;52.012;8.448;2022-12-15T16:28:53;-3.60;99.90
8475;DHT22;4274;52.012;8.448;2022-12-15T16:31:34;-3.70;99.90
8475;DHT22;4274;52.012;8.448;2022-12-15T16:34:04;-3.70;99.90
8475;DHT22;4274;52.012;8.448;2022-12-15T16:36:31;-3.70;99.90
8475;DHT22;4274;52.012;8.448;2022-12-15T16:38:57;-3.80;99.90
8475;DHT22;4274;52.012;8.448;2022-12-15T16:41:22;-3.90;99.90
8475;DHT22;4274;52.012;8.448;2022-12-15T16:43:52;-4.00;99.90
8475;DHT22;4274;52.012;8.448;2022-12-15T16:46:18;-4.10;99.90
8475;DHT22;4274;52.012;8.448;2022-12-15T16:48:44;-4.20;99.90
8475;DHT22;4274;52.012;8.448;2022-12-15T16:51:28;-4.20;99.90
8475;DHT22;4274;52.012;8.448;2022-12-15T16:53:54;-4.20;99.90
8475;DHT22;4274;52.012;8.448;2022-12-15T16:56:20;-4.10;99.90
8475;DHT22;4274;52.012;8.448;2022-12-15T16:58:45;-4.00;99.90
8475;DHT22;4274;52.012;8.448;2022-12-15T17:01:11;-4.00;99.90
8475;DHT22;4274;52.012;8.448;2022-12-15T17:03:37;-4.00;99.90
8475;DHT22;4274;52.012;8.448;2022-12-15T17:06:05;-4.00;99.90
8475;DHT22;4274;52.012;8.448;2022-12-15T17:08:43;-4.00;99.90
8475;DHT22;4274;52.012;8.448;2022-12-15T17:11:21;-4.00;99.90
8475;DHT22;4274;52.012;8.448;2022-12-15T17:13:48;-3.90;99.90
8475;DHT22;4274;52.012;8.448;2022-12-15T17:16:16;-3.90;99.90
8475;DHT22;4274;52.012;8.448;2022-12-15T17:18:41;-3.90;99.90
8475;DHT22;4274;52.012;8.448;2022-12-15T17:21:15;-3.90;99.90
8475;DHT22;4274;52.012;8.448;2022-12-15T17:23:43;-3.90;99.90
8475;DHT22;4274;52.012;8.448;2022-12-15T17:26:18;-3.90;99.90
8475;DHT22;4274;52.012;8.448;2022-12-15T17:28:45;-4.10;99.90
8475;DHT22;4274;52.012;8.448;2022-12-15T17:31:19;-4.20;99.90
8475;DHT22;4274;52.012;8.448;2022-12-15T17:33:45;-4.30;99.90
8475;DHT22;4274;52.012;8.448;2022-12-15T17:36:19;-4.30;99.90
8475;DHT22;4274;52.012;8.448;2022-12-15T17:38:45;-4.30;99.90
8475;DHT22;4274;52.012;8.448;2022-12-15T17:41:12;-4.20;99.90
8475;DHT22;4274;52.012;8.448;2022-12-15T17:43:39;-4.20;99.90
8475;DHT22;4274;52.012;8.448;2022-12-15T17:46:06;-4.30;99.90
8475;DHT22;4274;52.012;8.448;2022-12-15T17:48:31;-4.40;99.90
8475;DHT22;4274;52.012;8.448;2022-12-15T17:50:57;-4.50;99.90
8475;DHT22;4274;52.012;8.448;2022-12-15T17:53:23;-4.60;99.90
8475;DHT22;4274;52.012;8.448;2022-12-15T17:55:50;-4.60;99.90
8475;DHT22;4274;52.012;8.448;2022-12-15T18:00:44;-4.70;99.90
8475;DHT22;4274;52.012;8.448;2022-12-15T18:03:10;-4.80;99.90
8475;DHT22;4274;52.012;8.448;2022-12-15T18:05:36;-4.80;99.90
8475;DHT22;4274;52.012;8.448;2022-12-15T18:08:06;-4.70;99.90
8475;DHT22;4274;52.012;8.448;2022-12-15T18:10:36;-4.80;99.90
8475;DHT22;4274;52.012;8.448;2022-12-15T18:13:03;-4.80;99.90
8475;DHT22;4274;52.012;8.448;2022-12-15T18:15:35;-4.70;99.90
8475;DHT22;4274;52.012;8.448;2022-12-15T18:18:00;-4.80;99.90
8475;DHT22;4274;52.012;8.448;2022-12-15T18:20:26;-4.70;99.90
8475;DHT22;4274;52.012;8.448;2022-12-15T18:22:52;-4.60;99.90
8475;DHT22;4274;52.012;8.448;2022-12-15T18:25:24;-4.50;99.90